Maplesville, Alabama
Current Conditions -  °F | °C
As of 1:53 PM on Monday 22 Dec 2014 (Local Time) from KEET Reporting Station
Light Rain Light Rain  
Wind Chill: 53°   Ceiling: 600
Heat Index: 53°   Visibility: 4mi
Dew Point: 52°   Wind: 7mph
Humidity: 96%   Direction: 140°SE
Pressure: 29.82"   Gusts: NA
Location:  32.79°N, 86.87°W
Report Text: KEET 221953Z AUTO 14006KT 4SM -RA BR BKN006 OVC010 12/11 A2982 RMK AO2 CIG 004V009 SLP096 P0001 T01170111
Loading
Personal Weather Stations






























Interactive Weather Map New forecast layout! Learn more

10-Day Weather Forecast

Advertisements
Track Severe Weather on mobile